Terminal Aerodrome Forecast
Issued by NWS

Home | Current Version | Previous Version | Text Only | Print | Product List | Glossary On
Versions: 1 2 3 4 5 6 7 8 9 10 11 12 13 14 15 16 17 18 19
000
FTUS46 KPDT 190124 AAA
TAFYKM
TAF AMD
KYKM 190124Z 1901/1924 VRB04KT 3SM -FZRA BR BKN008 BKN035
     FM190300 25005KT 2SM BR VCSH SCT008 OVC025
     FM190900 27003KT 2SM BR OVC006
     FM191500 VRB03KT 1SM BR OVC008
     FM192000 VRB04KT 3SM BR SCT008 OVC015=

USA.gov is the U.S. government's official web portal to all federal, state and local government web resources and services.